sensor_id;sensor_type;location;lat;lon;timestamp;pressure;altitude;pressure_sealevel;temperature;humidity
50292;BME280;36190;54.980;73.388;2023-04-28T00:00:28;99758.28;;;16.35;38.09
50292;BME280;36190;54.980;73.388;2023-04-28T00:02:55;99747.97;;;16.32;38.08
50292;BME280;36190;54.980;73.388;2023-04-28T00:05:23;99741.75;;;16.31;38.05
50292;BME280;36190;54.980;73.388;2023-04-28T00:07:50;99751.69;;;16.31;38.17
50292;BME280;36190;54.980;73.388;2023-04-28T00:10:19;99753.78;;;16.29;38.34
50292;BME280;36190;54.980;73.388;2023-04-28T00:12:46;99749.44;;;16.28;38.35
50292;BME280;36190;54.980;73.388;2023-04-28T00:15:14;99753.63;;;16.24;38.44
50292;BME280;36190;54.980;73.388;2023-04-28T00:17:41;99751.34;;;16.20;38.48
50292;BME280;36190;54.980;73.388;2023-04-28T00:20:10;99757.19;;;16.17;38.53
50292;BME280;36190;54.980;73.388;2023-04-28T00:22:38;99749.78;;;16.13;38.63
50292;BME280;36190;54.980;73.388;2023-04-28T00:25:06;99755.75;;;16.15;38.60
50292;BME280;36190;54.980;73.388;2023-04-28T00:27:35;99759.28;;;16.15;38.62
50292;BME280;36190;54.980;73.388;2023-04-28T00:30:03;99752.03;;;16.16;38.66
50292;BME280;36190;54.980;73.388;2023-04-28T00:32:31;99748.53;;;16.15;38.65
50292;BME280;36190;54.980;73.388;2023-04-28T00:34:58;99754.94;;;16.14;38.92
50292;BME280;36190;54.980;73.388;2023-04-28T00:37:26;99730.72;;;16.14;38.81
50292;BME280;36190;54.980;73.388;2023-04-28T00:39:56;99748.91;;;16.19;38.76
50292;BME280;36190;54.980;73.388;2023-04-28T00:42:24;99738.50;;;16.22;38.59
50292;BME280;36190;54.980;73.388;2023-04-28T00:44:53;99748.63;;;16.27;38.64
50292;BME280;36190;54.980;73.388;2023-04-28T00:47:20;99732.41;;;16.34;38.68
50292;BME280;36190;54.980;73.388;2023-04-28T00:49:48;99725.50;;;16.38;38.39
50292;BME280;36190;54.980;73.388;2023-04-28T00:52:17;99719.69;;;16.41;38.37
50292;BME280;36190;54.980;73.388;2023-04-28T00:54:45;99720.88;;;16.45;38.35
50292;BME280;36190;54.980;73.388;2023-04-28T00:57:13;99731.81;;;16.50;38.35
50292;BME280;36190;54.980;73.388;2023-04-28T00:59:40;99724.53;;;16.51;38.37
50292;BME280;36190;54.980;73.388;2023-04-28T01:02:09;99715.19;;;16.54;38.38
50292;BME280;36190;54.980;73.388;2023-04-28T01:04:42;99719.09;;;16.58;38.38
50292;BME280;36190;54.980;73.388;2023-04-28T01:07:10;99716.16;;;16.59;38.31
50292;BME280;36190;54.980;73.388;2023-04-28T01:09:37;99724.19;;;16.66;38.30
50292;BME280;36190;54.980;73.388;2023-04-28T01:12:05;99716.31;;;16.64;38.02
50292;BME280;36190;54.980;73.388;2023-04-28T01:14:33;99704.75;;;16.64;38.14
50292;BME280;36190;54.980;73.388;2023-04-28T01:17:00;99707.75;;;16.56;38.28
50292;BME280;36190;54.980;73.388;2023-04-28T01:19:30;99707.13;;;16.54;38.42
50292;BME280;36190;54.980;73.388;2023-04-28T01:21:57;99709.22;;;16.52;38.50
50292;BME280;36190;54.980;73.388;2023-04-28T01:24:26;99715.06;;;16.48;38.51
50292;BME280;36190;54.980;73.388;2023-04-28T01:26:53;99714.38;;;16.53;38.45
50292;BME280;36190;54.980;73.388;2023-04-28T01:29:21;99718.06;;;16.59;38.40
50292;BME280;36190;54.980;73.388;2023-04-28T01:31:48;99712.81;;;16.64;38.24
50292;BME280;36190;54.980;73.388;2023-04-28T01:34:16;99721.88;;;16.70;38.35
50292;BME280;36190;54.980;73.388;2023-04-28T01:36:43;99711.47;;;16.73;38.25
50292;BME280;36190;54.980;73.388;2023-04-28T01:39:11;99720.13;;;16.75;38.29
50292;BME280;36190;54.980;73.388;2023-04-28T01:41:40;99712.66;;;16.77;38.47
50292;BME280;36190;54.980;73.388;2023-04-28T01:44:07;99716.53;;;16.82;38.45
50292;BME280;36190;54.980;73.388;2023-04-28T01:46:34;99722.06;;;16.87;38.40
50292;BME280;36190;54.980;73.388;2023-04-28T01:49:02;99716.47;;;16.88;38.30
50292;BME280;36190;54.980;73.388;2023-04-28T01:51:29;99710.38;;;16.93;38.26
50292;BME280;36190;54.980;73.388;2023-04-28T01:53:57;99696.22;;;16.98;38.38
50292;BME280;36190;54.980;73.388;2023-04-28T01:56:24;99699.31;;;17.01;38.14
50292;BME280;36190;54.980;73.388;2023-04-28T01:58:53;99702.16;;;17.07;38.01
50292;BME280;36190;54.980;73.388;2023-04-28T02:01:21;99692.69;;;17.16;37.79
50292;BME280;36190;54.980;73.388;2023-04-28T02:03:48;99685.94;;;17.25;37.72
50292;BME280;36190;54.980;73.388;2023-04-28T02:06:16;99696.59;;;17.32;37.61
50292;BME280;36190;54.980;73.388;2023-04-28T02:08:43;99689.03;;;17.41;37.45
50292;BME280;36190;54.980;73.388;2023-04-28T02:11:11;99682.59;;;17.54;37.30
50292;BME280;36190;54.980;73.388;2023-04-28T02:13:38;99679.91;;;17.66;37.01
50292;BME280;36190;54.980;73.388;2023-04-28T02:16:08;99675.00;;;17.75;36.94
50292;BME280;36190;54.980;73.388;2023-04-28T02:18:35;99679.22;;;17.82;36.93
50292;BME280;36190;54.980;73.388;2023-04-28T02:21:08;99680.53;;;17.92;36.64
50292;BME280;36190;54.980;73.388;2023-04-28T02:23:36;99674.75;;;18.00;36.58
50292;BME280;36190;54.980;73.388;2023-04-28T02:26:04;99684.66;;;18.06;36.53
50292;BME280;36190;54.980;73.388;2023-04-28T02:28:31;99674.09;;;18.17;36.37
50292;BME280;36190;54.980;73.388;2023-04-28T02:31:07;99669.59;;;18.22;36.21
50292;BME280;36190;54.980;73.388;2023-04-28T02:33:36;99672.78;;;18.31;35.97
50292;BME280;36190;54.980;73.388;2023-04-28T02:36:05;99669.00;;;18.44;35.79
50292;BME280;36190;54.980;73.388;2023-04-28T02:38:32;99688.94;;;18.55;35.49
50292;BME280;36190;54.980;73.388;2023-04-28T02:41:01;99684.00;;;18.64;35.58
50292;BME280;36190;54.980;73.388;2023-04-28T02:43:29;99683.34;;;18.74;35.27
50292;BME280;36190;54.980;73.388;2023-04-28T02:45:57;99689.78;;;18.85;35.22
50292;BME280;36190;54.980;73.388;2023-04-28T02:48:26;99683.44;;;18.91;35.03
50292;BME280;36190;54.980;73.388;2023-04-28T02:50:54;99688.00;;;18.90;35.03
50292;BME280;36190;54.980;73.388;2023-04-28T02:53:21;99692.94;;;18.93;35.00
50292;BME280;36190;54.980;73.388;2023-04-28T02:55:49;99689.88;;;19.02;34.73
50292;BME280;36190;54.980;73.388;2023-04-28T02:58:16;99680.31;;;19.11;34.78
50292;BME280;36190;54.980;73.388;2023-04-28T03:00:44;99684.16;;;19.15;34.74
50292;BME280;36190;54.980;73.388;2023-04-28T03:03:11;99688.44;;;19.11;34.68
50292;BME280;36190;54.980;73.388;2023-04-28T03:05:40;99677.63;;;19.11;34.68
50292;BME280;36190;54.980;73.388;2023-04-28T03:08:08;99687.94;;;19.14;34.71
50292;BME280;36190;54.980;73.388;2023-04-28T03:10:35;99686.47;;;19.23;34.57
50292;BME280;36190;54.980;73.388;2023-04-28T03:13:03;99679.03;;;19.31;34.59
50292;BME280;36190;54.980;73.388;2023-04-28T03:15:30;99672.66;;;19.37;34.42
50292;BME280;36190;54.980;73.388;2023-04-28T03:17:58;99667.34;;;19.42;34.36
50292;BME280;36190;54.980;73.388;2023-04-28T03:20:25;99659.63;;;19.51;34.33
50292;BME280;36190;54.980;73.388;2023-04-28T03:22:54;99669.69;;;19.56;34.50
50292;BME280;36190;54.980;73.388;2023-04-28T03:25:22;99667.19;;;19.66;34.16
50292;BME280;36190;54.980;73.388;2023-04-28T03:27:49;99663.78;;;19.76;34.11
50292;BME280;36190;54.980;73.388;2023-04-28T03:30:16;99671.81;;;19.88;33.91
50292;BME280;36190;54.980;73.388;2023-04-28T03:32:44;99684.41;;;19.94;33.61
50292;BME280;36190;54.980;73.388;2023-04-28T03:35:12;99670.25;;;19.92;33.70
50292;BME280;36190;54.980;73.388;2023-04-28T03:37:39;99671.06;;;19.92;33.64
50292;BME280;36190;54.980;73.388;2023-04-28T03:40:09;99674.41;;;19.95;33.69
50292;BME280;36190;54.980;73.388;2023-04-28T03:42:37;99670.63;;;19.96;33.58
50292;BME280;36190;54.980;73.388;2023-04-28T03:45:05;99667.66;;;19.97;33.35
50292;BME280;36190;54.980;73.388;2023-04-28T03:47:33;99675.50;;;20.16;33.23
50292;BME280;36190;54.980;73.388;2023-04-28T03:50:00;99667.28;;;20.28;33.10
50292;BME280;36190;54.980;73.388;2023-04-28T03:52:28;99664.94;;;20.37;32.90
50292;BME280;36190;54.980;73.388;2023-04-28T03:54:55;99666.19;;;20.51;32.88
50292;BME280;36190;54.980;73.388;2023-04-28T03:57:24;99661.22;;;20.65;32.61
50292;BME280;36190;54.980;73.388;2023-04-28T03:59:52;99662.97;;;20.77;32.40
50292;BME280;36190;54.980;73.388;2023-04-28T04:02:19;99660.97;;;20.89;32.25
50292;BME280;36190;54.980;73.388;2023-04-28T04:04:47;99670.81;;;21.00;32.16
50292;BME280;36190;54.980;73.388;2023-04-28T04:07:14;99662.50;;;21.07;31.98
50292;BME280;36190;54.980;73.388;2023-04-28T04:09:42;99654.47;;;21.18;31.98
50292;BME280;36190;54.980;73.388;2023-04-28T04:12:09;99660.56;;;21.30;31.91
50292;BME280;36190;54.980;73.388;2023-04-28T04:14:38;99653.00;;;21.37;31.83
50292;BME280;36190;54.980;73.388;2023-04-28T04:17:06;99657.44;;;21.49;31.67
50292;BME280;36190;54.980;73.388;2023-04-28T04:19:33;99651.59;;;21.62;31.13
50292;BME280;36190;54.980;73.388;2023-04-28T04:22:01;99660.91;;;21.72;31.00
50292;BME280;36190;54.980;73.388;2023-04-28T04:24:28;99675.91;;;21.84;30.83
50292;BME280;36190;54.980;73.388;2023-04-28T04:26:55;99664.56;;;21.93;30.41
50292;BME280;36190;54.980;73.388;2023-04-28T04:29:23;99681.97;;;21.97;30.24
50292;BME280;36190;54.980;73.388;2023-04-28T04:31:52;99676.28;;;21.98;29.72
50292;BME280;36190;54.980;73.388;2023-04-28T04:34:19;99662.75;;;22.04;29.64
50292;BME280;36190;54.980;73.388;2023-04-28T04:36:47;99657.06;;;22.10;29.59
50292;BME280;36190;54.980;73.388;2023-04-28T04:39:14;99660.06;;;22.19;29.48
50292;BME280;36190;54.980;73.388;2023-04-28T04:41:41;99695.72;;;22.28;29.39
50292;BME280;36190;54.980;73.388;2023-04-28T04:44:09;99677.84;;;22.37;29.21
50292;BME280;36190;54.980;73.388;2023-04-28T04:46:37;99663.75;;;22.46;29.08
50292;BME280;36190;54.980;73.388;2023-04-28T04:49:06;99677.69;;;22.55;29.00
50292;BME280;36190;54.980;73.388;2023-04-28T04:51:34;99686.94;;;22.64;28.89
50292;BME280;36190;54.980;73.388;2023-04-28T04:54:01;99687.25;;;22.67;28.74
50292;BME280;36190;54.980;73.388;2023-04-28T04:56:28;99679.13;;;22.73;28.63
50292;BME280;36190;54.980;73.388;2023-04-28T04:58:56;99673.41;;;22.79;28.70
50292;BME280;36190;54.980;73.388;2023-04-28T05:01:24;99648.41;;;22.88;28.50
50292;BME280;36190;54.980;73.388;2023-04-28T05:03:51;99669.38;;;22.98;28.29
50292;BME280;36190;54.980;73.388;2023-04-28T05:06:21;99671.28;;;23.07;28.20
50292;BME280;36190;54.980;73.388;2023-04-28T05:08:48;99666.41;;;23.10;28.12
50292;BME280;36190;54.980;73.388;2023-04-28T05:11:16;99663.97;;;23.18;27.92
50292;BME280;36190;54.980;73.388;2023-04-28T05:13:43;99680.84;;;23.26;27.89
50292;BME280;36190;54.980;73.388;2023-04-28T05:16:11;99651.75;;;23.31;27.90
50292;BME280;36190;54.980;73.388;2023-04-28T05:18:38;99660.72;;;23.37;27.76
50292;BME280;36190;54.980;73.388;2023-04-28T05:21:06;99660.19;;;23.45;27.63
50292;BME280;36190;54.980;73.388;2023-04-28T05:23:35;99675.69;;;23.50;27.56
50292;BME280;36190;54.980;73.388;2023-04-28T05:26:02;99644.97;;;23.55;27.58
50292;BME280;36190;54.980;73.388;2023-04-28T05:28:30;99665.91;;;23.59;27.55
50292;BME280;36190;54.980;73.388;2023-04-28T05:30:57;99673.81;;;23.71;27.53
50292;BME280;36190;54.980;73.388;2023-04-28T05:33:25;99661.00;;;23.77;27.46
50292;BME280;36190;54.980;73.388;2023-04-28T05:35:52;99653.09;;;23.81;27.42
50292;BME280;36190;54.980;73.388;2023-04-28T05:38:20;99676.47;;;23.92;27.64
50292;BME280;36190;54.980;73.388;2023-04-28T05:40:49;99646.22;;;24.04;27.47
50292;BME280;36190;54.980;73.388;2023-04-28T05:43:16;99653.28;;;24.21;27.20
50292;BME280;36190;54.980;73.388;2023-04-28T05:45:44;99676.13;;;24.30;27.05
50292;BME280;36190;54.980;73.388;2023-04-28T05:48:11;99657.06;;;24.35;26.89
50292;BME280;36190;54.980;73.388;2023-04-28T05:50:39;99645.06;;;24.36;26.82
50292;BME280;36190;54.980;73.388;2023-04-28T05:53:06;99652.16;;;24.32;26.92
50292;BME280;36190;54.980;73.388;2023-04-28T05:55:34;99664.97;;;24.26;27.01
50292;BME280;36190;54.980;73.388;2023-04-28T05:58:03;99653.81;;;24.28;26.99
50292;BME280;36190;54.980;73.388;2023-04-28T06:00:32;99657.56;;;24.37;27.19
50292;BME280;36190;54.980;73.388;2023-04-28T06:03:00;99668.47;;;24.42;26.95
50292;BME280;36190;54.980;73.388;2023-04-28T06:05:27;99657.00;;;24.51;26.91
50292;BME280;36190;54.980;73.388;2023-04-28T06:07:55;99659.72;;;24.51;26.88
50292;BME280;36190;54.980;73.388;2023-04-28T06:10:24;99638.19;;;24.44;26.62
50292;BME280;36190;54.980;73.388;2023-04-28T06:12:52;99640.63;;;24.45;26.91
50292;BME280;36190;54.980;73.388;2023-04-28T06:15:21;99636.81;;;24.47;27.03
50292;BME280;36190;54.980;73.388;2023-04-28T06:17:48;99661.31;;;24.57;27.12
50292;BME280;36190;54.980;73.388;2023-04-28T06:20:15;99661.84;;;24.59;27.03
50292;BME280;36190;54.980;73.388;2023-04-28T06:22:43;99634.84;;;24.57;27.13
50292;BME280;36190;54.980;73.388;2023-04-28T06:25:10;99627.75;;;24.62;26.98
50292;BME280;36190;54.980;73.388;2023-04-28T06:27:38;99655.81;;;24.62;27.18
50292;BME280;36190;54.980;73.388;2023-04-28T06:30:07;99659.41;;;24.57;27.41
50292;BME280;36190;54.980;73.388;2023-04-28T06:32:36;99614.97;;;24.57;27.48
50292;BME280;36190;54.980;73.388;2023-04-28T06:35:04;99633.47;;;24.65;27.53
50292;BME280;36190;54.980;73.388;2023-04-28T06:37:31;99670.22;;;24.73;27.62
50292;BME280;36190;54.980;73.388;2023-04-28T06:39:59;99670.22;;;24.73;27.94
50292;BME280;36190;54.980;73.388;2023-04-28T06:42:26;99656.34;;;24.69;27.95
50292;BME280;36190;54.980;73.388;2023-04-28T06:44:54;99640.00;;;24.64;27.83
50292;BME280;36190;54.980;73.388;2023-04-28T06:47:21;99663.47;;;24.60;27.92
50292;BME280;36190;54.980;73.388;2023-04-28T06:49:50;99643.28;;;24.66;28.08
50292;BME280;36190;54.980;73.388;2023-04-28T06:52:18;99678.16;;;24.75;28.06
50292;BME280;36190;54.980;73.388;2023-04-28T06:54:46;99658.50;;;24.72;28.01
50292;BME280;36190;54.980;73.388;2023-04-28T06:57:14;99635.09;;;24.66;27.85
50292;BME280;36190;54.980;73.388;2023-04-28T06:59:41;99624.72;;;24.63;27.90
50292;BME280;36190;54.980;73.388;2023-04-28T07:02:11;99632.31;;;24.71;28.09
50292;BME280;36190;54.980;73.388;2023-04-28T07:04:38;99624.13;;;24.82;27.68
50292;BME280;36190;54.980;73.388;2023-04-28T07:07:07;99673.19;;;24.87;27.71
50292;BME280;36190;54.980;73.388;2023-04-28T07:09:34;99632.56;;;24.85;27.57
50292;BME280;36190;54.980;73.388;2023-04-28T07:12:03;99621.06;;;24.89;27.41
50292;BME280;36190;54.980;73.388;2023-04-28T07:14:30;99640.09;;;24.99;27.42
50292;BME280;36190;54.980;73.388;2023-04-28T07:16:58;99629.44;;;25.03;26.94
50292;BME280;36190;54.980;73.388;2023-04-28T07:19:26;99621.50;;;25.06;26.66
50292;BME280;36190;54.980;73.388;2023-04-28T07:21:53;99622.84;;;25.09;26.67
50292;BME280;36190;54.980;73.388;2023-04-28T07:24:22;99635.09;;;25.11;26.46
50292;BME280;36190;54.980;73.388;2023-04-28T07:26:50;99614.63;;;25.14;26.48
50292;BME280;36190;54.980;73.388;2023-04-28T07:29:17;99614.81;;;25.23;26.28
50292;BME280;36190;54.980;73.388;2023-04-28T07:31:45;99617.69;;;25.37;26.15
50292;BME280;36190;54.980;73.388;2023-04-28T07:34:12;99599.06;;;25.44;26.16
50292;BME280;36190;54.980;73.388;2023-04-28T07:36:40;99596.22;;;25.60;26.13
50292;BME280;36190;54.980;73.388;2023-04-28T07:39:07;99604.00;;;25.72;25.91
50292;BME280;36190;54.980;73.388;2023-04-28T07:41:37;99609.13;;;25.78;25.52
50292;BME280;36190;54.980;73.388;2023-04-28T07:44:05;99606.59;;;25.87;25.57
50292;BME280;36190;54.980;73.388;2023-04-28T07:46:33;99606.69;;;26.01;25.38
50292;BME280;36190;54.980;73.388;2023-04-28T07:49:00;99624.94;;;26.06;25.13
50292;BME280;36190;54.980;73.388;2023-04-28T07:51:29;99611.66;;;25.99;25.40
50292;BME280;36190;54.980;73.388;2023-04-28T07:53:57;99624.72;;;26.02;24.99
50292;BME280;36190;54.980;73.388;2023-04-28T07:56:24;99619.31;;;25.97;25.09
50292;BME280;36190;54.980;73.388;2023-04-28T07:58:53;99600.19;;;25.97;25.01
50292;BME280;36190;54.980;73.388;2023-04-28T08:01:21;99669.31;;;25.98;25.09
50292;BME280;36190;54.980;73.388;2023-04-28T08:03:49;99610.44;;;25.86;25.06
50292;BME280;36190;54.980;73.388;2023-04-28T08:06:16;99623.34;;;25.80;25.34
50292;BME280;36190;54.980;73.388;2023-04-28T08:08:44;99614.78;;;25.87;25.23
50292;BME280;36190;54.980;73.388;2023-04-28T08:11:11;99588.06;;;26.03;25.16
50292;BME280;36190;54.980;73.388;2023-04-28T08:13:39;99605.09;;;26.25;25.03
50292;BME280;36190;54.980;73.388;2023-04-28T08:16:08;99602.50;;;26.33;24.56
50292;BME280;36190;54.980;73.388;2023-04-28T08:18:35;99607.84;;;26.44;24.69
50292;BME280;36190;54.980;73.388;2023-04-28T08:21:03;99594.69;;;26.46;24.36
50292;BME280;36190;54.980;73.388;2023-04-28T08:23:31;99600.75;;;26.62;24.08
50292;BME280;36190;54.980;73.388;2023-04-28T08:25:58;99589.25;;;26.65;23.82
50292;BME280;36190;54.980;73.388;2023-04-28T08:28:26;99580.72;;;26.86;24.06
50292;BME280;36190;54.980;73.388;2023-04-28T08:30:54;99588.75;;;27.15;23.64
50292;BME280;36190;54.980;73.388;2023-04-28T08:33:24;99587.88;;;27.34;23.32
50292;BME280;36190;54.980;73.388;2023-04-28T08:35:51;99606.63;;;27.27;23.33
50292;BME280;36190;54.980;73.388;2023-04-28T08:38:19;99618.53;;;27.03;23.66
50292;BME280;36190;54.980;73.388;2023-04-28T08:40:48;99608.34;;;26.84;23.92
50292;BME280;36190;54.980;73.388;2023-04-28T08:43:16;99592.38;;;26.72;23.76
50292;BME280;36190;54.980;73.388;2023-04-28T08:45:45;99593.81;;;26.70;23.69
50292;BME280;36190;54.980;73.388;2023-04-28T08:48:17;99587.22;;;26.71;23.90
50292;BME280;36190;54.980;73.388;2023-04-28T08:50:50;99585.06;;;26.68;23.84
50292;BME280;36190;54.980;73.388;2023-04-28T08:53:22;99610.22;;;26.70;23.85
50292;BME280;36190;54.980;73.388;2023-04-28T08:55:54;99570.53;;;26.53;24.20
50292;BME280;36190;54.980;73.388;2023-04-28T08:58:22;99593.66;;;26.42;23.92
50292;BME280;36190;54.980;73.388;2023-04-28T09:00:50;99603.88;;;26.55;23.91
50292;BME280;36190;54.980;73.388;2023-04-28T09:03:18;99615.78;;;26.64;23.92
50292;BME280;36190;54.980;73.388;2023-04-28T09:05:48;99589.97;;;26.52;23.69
50292;BME280;36190;54.980;73.388;2023-04-28T09:08:15;99596.38;;;26.42;24.02
50292;BME280;36190;54.980;73.388;2023-04-28T09:10:43;99637.69;;;26.40;24.15
50292;BME280;36190;54.980;73.388;2023-04-28T09:13:23;99598.38;;;26.36;23.99
50292;BME280;36190;54.980;73.388;2023-04-28T09:15:58;99599.97;;;26.61;23.62
50292;BME280;36190;54.980;73.388;2023-04-28T09:18:27;99583.53;;;27.00;23.63
50292;BME280;36190;54.980;73.388;2023-04-28T09:21:08;99594.38;;;27.38;23.00
50292;BME280;36190;54.980;73.388;2023-04-28T09:23:46;99606.44;;;27.70;22.80
50292;BME280;36190;54.980;73.388;2023-04-28T09:26:14;99599.75;;;27.91;22.87
50292;BME280;36190;54.980;73.388;2023-04-28T09:28:41;99591.22;;;27.92;22.41
50292;BME280;36190;54.980;73.388;2023-04-28T09:31:21;99581.19;;;28.02;22.56
50292;BME280;36190;54.980;73.388;2023-04-28T09:33:56;99594.56;;;28.03;22.34
50292;BME280;36190;54.980;73.388;2023-04-28T09:36:29;99629.59;;;27.92;22.66
50292;BME280;36190;54.980;73.388;2023-04-28T09:38:57;99598.50;;;27.83;22.30
50292;BME280;36190;54.980;73.388;2023-04-28T09:41:35;99585.44;;;27.80;22.43
50292;BME280;36190;54.980;73.388;2023-04-28T09:44:12;99592.44;;;28.00;22.54
50292;BME280;36190;54.980;73.388;2023-04-28T09:46:40;99591.00;;;28.17;22.49
50292;BME280;36190;54.980;73.388;2023-04-28T09:49:09;99597.63;;;28.30;22.01
50292;BME280;36190;54.980;73.388;2023-04-28T09:51:38;99587.66;;;28.20;21.90
50292;BME280;36190;54.980;73.388;2023-04-28T09:54:06;99597.31;;;28.17;22.10
50292;BME280;36190;54.980;73.388;2023-04-28T09:56:34;99600.13;;;28.40;22.08
50292;BME280;36190;54.980;73.388;2023-04-28T09:59:03;99592.09;;;28.80;21.39
50292;BME280;36190;54.980;73.388;2023-04-28T10:01:33;99599.69;;;28.98;21.15
50292;BME280;36190;54.980;73.388;2023-04-28T10:04:03;99609.88;;;28.83;21.26
50292;BME280;36190;54.980;73.388;2023-04-28T10:06:33;99584.66;;;28.58;21.32
50292;BME280;36190;54.980;73.388;2023-04-28T10:09:04;99557.59;;;28.65;21.25
50292;BME280;36190;54.980;73.388;2023-04-28T10:11:32;99569.41;;;28.89;21.04
50292;BME280;36190;54.980;73.388;2023-04-28T10:14:00;99572.78;;;29.08;20.92
50292;BME280;36190;54.980;73.388;2023-04-28T10:16:30;99567.03;;;28.96;21.22
50292;BME280;36190;54.980;73.388;2023-04-28T10:18:57;99572.50;;;28.87;21.36
50292;BME280;36190;54.980;73.388;2023-04-28T10:21:26;99608.97;;;28.88;21.55
50292;BME280;36190;54.980;73.388;2023-04-28T10:24:04;99582.66;;;28.87;21.20
50292;BME280;36190;54.980;73.388;2023-04-28T10:29:31;99574.13;;;28.74;21.38
50292;BME280;36190;54.980;73.388;2023-04-28T10:32:21;99566.50;;;28.71;21.43
50292;BME280;36190;54.980;73.388;2023-04-28T10:34:51;99584.75;;;28.53;21.42
50292;BME280;36190;54.980;73.388;2023-04-28T10:37:18;99595.22;;;28.51;21.62
50292;BME280;36190;54.980;73.388;2023-04-28T10:42:52;99582.16;;;28.85;21.41
50292;BME280;36190;54.980;73.388;2023-04-28T10:48:52;99584.97;;;28.79;21.46
50292;BME280;36190;54.980;73.388;2023-04-28T10:51:30;99579.75;;;28.69;21.09
50292;BME280;36190;54.980;73.388;2023-04-28T10:54:08;99597.44;;;28.63;21.35
50292;BME280;36190;54.980;73.388;2023-04-28T10:56:36;99591.16;;;28.62;21.54
50292;BME280;36190;54.980;73.388;2023-04-28T10:59:24;99579.84;;;28.64;21.60
50292;BME280;36190;54.980;73.388;2023-04-28T11:01:52;99580.19;;;28.48;21.91
50292;BME280;36190;54.980;73.388;2023-04-28T11:04:20;99587.66;;;28.34;22.01
50292;BME280;36190;54.980;73.388;2023-04-28T11:07:09;99588.69;;;28.24;22.10
50292;BME280;36190;54.980;73.388;2023-04-28T11:09:47;99577.38;;;28.11;21.98
50292;BME280;36190;54.980;73.388;2023-04-28T11:12:17;99578.91;;;28.18;22.09
50292;BME280;36190;54.980;73.388;2023-04-28T11:14:46;99587.38;;;28.21;22.03
50292;BME280;36190;54.980;73.388;2023-04-28T11:17:14;99594.66;;;28.12;22.20
50292;BME280;36190;54.980;73.388;2023-04-28T11:19:45;99572.63;;;28.17;21.89
50292;BME280;36190;54.980;73.388;2023-04-28T11:22:14;99573.81;;;28.39;21.66
50292;BME280;36190;54.980;73.388;2023-04-28T11:24:53;99584.19;;;28.42;21.64
50292;BME280;36190;54.980;73.388;2023-04-28T11:27:25;99599.75;;;28.33;21.85
50292;BME280;36190;54.980;73.388;2023-04-28T11:29:55;99590.72;;;28.04;21.92
50292;BME280;36190;54.980;73.388;2023-04-28T11:32:26;99593.16;;;27.78;22.14
50292;BME280;36190;54.980;73.388;2023-04-28T11:34:54;99598.22;;;27.56;22.64
50292;BME280;36190;54.980;73.388;2023-04-28T11:37:22;99599.56;;;27.40;22.75
50292;BME280;36190;54.980;73.388;2023-04-28T11:39:50;99605.53;;;27.28;22.70
50292;BME280;36190;54.980;73.388;2023-04-28T11:42:17;99597.59;;;27.26;22.68
50292;BME280;36190;54.980;73.388;2023-04-28T11:44:49;99612.06;;;27.13;22.87
50292;BME280;36190;54.980;73.388;2023-04-28T11:47:29;99591.44;;;27.01;23.31
50292;BME280;36190;54.980;73.388;2023-04-28T11:49:57;99584.41;;;26.95;23.25
50292;BME280;36190;54.980;73.388;2023-04-28T11:52:25;99593.44;;;26.96;23.12
50292;BME280;36190;54.980;73.388;2023-04-28T11:54:53;99599.03;;;26.85;23.49
50292;BME280;36190;54.980;73.388;2023-04-28T11:57:22;99590.53;;;26.68;23.33
50292;BME280;36190;54.980;73.388;2023-04-28T11:59:50;99587.06;;;26.62;23.62
50292;BME280;36190;54.980;73.388;2023-04-28T12:02:24;99605.84;;;26.69;23.26
50292;BME280;36190;54.980;73.388;2023-04-28T12:04:55;99604.44;;;26.52;23.55
50292;BME280;36190;54.980;73.388;2023-04-28T12:07:23;99594.03;;;26.35;23.65
50292;BME280;36190;54.980;73.388;2023-04-28T12:10:11;99590.53;;;26.29;24.09
50292;BME280;36190;54.980;73.388;2023-04-28T12:12:40;99604.16;;;26.10;24.00
50292;BME280;36190;54.980;73.388;2023-04-28T12:15:09;99617.38;;;25.98;24.38
50292;BME280;36190;54.980;73.388;2023-04-28T12:17:38;99617.88;;;25.80;24.53
50292;BME280;36190;54.980;73.388;2023-04-28T12:20:09;99592.97;;;25.58;24.80
50292;BME280;36190;54.980;73.388;2023-04-28T12:22:44;99613.66;;;25.64;24.85
50292;BME280;36190;54.980;73.388;2023-04-28T12:25:13;99609.91;;;25.54;24.98
50292;BME280;36190;54.980;73.388;2023-04-28T12:27:57;99599.59;;;25.46;25.10
50292;BME280;36190;54.980;73.388;2023-04-28T12:30:25;99597.47;;;25.38;25.17
50292;BME280;36190;54.980;73.388;2023-04-28T12:32:53;99597.88;;;25.26;25.30
50292;BME280;36190;54.980;73.388;2023-04-28T12:35:22;99585.16;;;25.11;25.62
50292;BME280;36190;54.980;73.388;2023-04-28T12:37:50;99586.63;;;24.98;25.70
50292;BME280;36190;54.980;73.388;2023-04-28T12:40:18;99589.69;;;24.91;25.78
50292;BME280;36190;54.980;73.388;2023-04-28T12:42:46;99578.81;;;24.86;25.85
50292;BME280;36190;54.980;73.388;2023-04-28T12:45:14;99602.28;;;24.77;26.98
50292;BME280;36190;54.980;73.388;2023-04-28T12:47:42;99669.31;;;24.33;30.30
50292;BME280;36190;54.980;73.388;2023-04-28T12:50:10;99660.19;;;23.61;33.90
50292;BME280;36190;54.980;73.388;2023-04-28T12:52:38;99654.97;;;23.02;36.37
50292;BME280;36190;54.980;73.388;2023-04-28T12:55:07;99653.22;;;22.55;37.63
50292;BME280;36190;54.980;73.388;2023-04-28T12:57:35;99680.22;;;22.23;39.22
50292;BME280;36190;54.980;73.388;2023-04-28T13:00:03;99687.59;;;21.85;40.50
50292;BME280;36190;54.980;73.388;2023-04-28T13:02:30;99690.31;;;21.52;41.46
50292;BME280;36190;54.980;73.388;2023-04-28T13:04:58;99688.16;;;21.22;42.64
50292;BME280;36190;54.980;73.388;2023-04-28T13:07:26;99708.44;;;20.92;43.30